sensor_id;sensor_type;location;lat;lon;timestamp;temperature;humidity
33741;DHT22;20065;48.380;10.892;2022-11-12T00:02:49;7.00;99.90
33741;DHT22;20065;48.380;10.892;2022-11-12T00:05:54;7.00;99.90
33741;DHT22;20065;48.380;10.892;2022-11-12T00:08:59;7.00;99.90
33741;DHT22;20065;48.380;10.892;2022-11-12T00:12:04;6.90;99.90
33741;DHT22;20065;48.380;10.892;2022-11-12T00:15:11;6.90;99.90
33741;DHT22;20065;48.380;10.892;2022-11-12T00:18:16;6.80;99.90
33741;DHT22;20065;48.380;10.892;2022-11-12T00:21:21;6.80;99.90
33741;DHT22;20065;48.380;10.892;2022-11-12T00:24:26;6.80;99.90
33741;DHT22;20065;48.380;10.892;2022-11-12T00:27:31;6.80;99.90
33741;DHT22;20065;48.380;10.892;2022-11-12T00:30:37;6.90;99.90
33741;DHT22;20065;48.380;10.892;2022-11-12T00:33:42;6.80;99.90
33741;DHT22;20065;48.380;10.892;2022-11-12T00:36:47;6.80;99.90
33741;DHT22;20065;48.380;10.892;2022-11-12T00:39:52;6.90;99.90
33741;DHT22;20065;48.380;10.892;2022-11-12T00:42:57;6.90;99.90
33741;DHT22;20065;48.380;10.892;2022-11-12T00:46:02;6.90;99.90
33741;DHT22;20065;48.380;10.892;2022-11-12T00:49:07;6.90;99.90
33741;DHT22;20065;48.380;10.892;2022-11-12T00:52:12;7.00;99.90
33741;DHT22;20065;48.380;10.892;2022-11-12T00:55:17;7.00;99.90
33741;DHT22;20065;48.380;10.892;2022-11-12T00:58:22;7.00;99.90
33741;DHT22;20065;48.380;10.892;2022-11-12T01:01:27;7.00;99.90
33741;DHT22;20065;48.380;10.892;2022-11-12T01:04:32;6.90;99.90
33741;DHT22;20065;48.380;10.892;2022-11-12T01:07:37;7.00;99.90
33741;DHT22;20065;48.380;10.892;2022-11-12T01:10:42;6.90;99.90
33741;DHT22;20065;48.380;10.892;2022-11-12T01:13:52;6.90;99.90
33741;DHT22;20065;48.380;10.892;2022-11-12T01:16:57;6.90;99.90
33741;DHT22;20065;48.380;10.892;2022-11-12T01:20:02;6.80;99.90
33741;DHT22;20065;48.380;10.892;2022-11-12T01:23:07;6.80;99.90
33741;DHT22;20065;48.380;10.892;2022-11-12T01:26:14;6.80;99.90
33741;DHT22;20065;48.380;10.892;2022-11-12T01:29:19;6.80;99.90
33741;DHT22;20065;48.380;10.892;2022-11-12T01:32:24;6.80;99.90
33741;DHT22;20065;48.380;10.892;2022-11-12T01:35:29;6.80;99.90
33741;DHT22;20065;48.380;10.892;2022-11-12T01:38:35;6.80;99.90
33741;DHT22;20065;48.380;10.892;2022-11-12T01:45:47;6.70;99.90
33741;DHT22;20065;48.380;10.892;2022-11-12T01:48:59;6.70;99.90
33741;DHT22;20065;48.380;10.892;2022-11-12T01:52:15;6.70;99.90
33741;DHT22;20065;48.380;10.892;2022-11-12T01:55:27;6.70;99.90
33741;DHT22;20065;48.380;10.892;2022-11-12T01:58:36;6.70;99.90
33741;DHT22;20065;48.380;10.892;2022-11-12T02:01:41;6.70;99.90
33741;DHT22;20065;48.380;10.892;2022-11-12T02:04:46;6.70;99.90
33741;DHT22;20065;48.380;10.892;2022-11-12T02:07:52;6.70;99.90
33741;DHT22;20065;48.380;10.892;2022-11-12T02:10:57;6.80;99.90
33741;DHT22;20065;48.380;10.892;2022-11-12T02:14:02;6.80;99.90
33741;DHT22;20065;48.380;10.892;2022-11-12T02:17:08;6.70;99.90
33741;DHT22;20065;48.380;10.892;2022-11-12T02:20:13;6.70;99.90
33741;DHT22;20065;48.380;10.892;2022-11-12T02:23:18;6.50;99.90
33741;DHT22;20065;48.380;10.892;2022-11-12T02:26:22;6.50;99.90
33741;DHT22;20065;48.380;10.892;2022-11-12T02:29:27;6.50;99.90
33741;DHT22;20065;48.380;10.892;2022-11-12T02:32:32;6.50;99.90
33741;DHT22;20065;48.380;10.892;2022-11-12T02:35:37;6.50;99.90
33741;DHT22;20065;48.380;10.892;2022-11-12T02:38:42;6.40;99.90
33741;DHT22;20065;48.380;10.892;2022-11-12T02:41:46;6.50;99.90
33741;DHT22;20065;48.380;10.892;2022-11-12T02:44:52;6.50;99.90
33741;DHT22;20065;48.380;10.892;2022-11-12T02:47:57;6.50;99.90
33741;DHT22;20065;48.380;10.892;2022-11-12T02:51:01;6.50;99.90
33741;DHT22;20065;48.380;10.892;2022-11-12T02:54:06;6.60;99.90
33741;DHT22;20065;48.380;10.892;2022-11-12T02:57:11;6.70;99.90
33741;DHT22;20065;48.380;10.892;2022-11-12T03:00:16;6.80;99.90
33741;DHT22;20065;48.380;10.892;2022-11-12T03:03:22;6.70;99.90
33741;DHT22;20065;48.380;10.892;2022-11-12T03:06:26;6.70;99.90
33741;DHT22;20065;48.380;10.892;2022-11-12T03:09:31;6.60;99.90
33741;DHT22;20065;48.380;10.892;2022-11-12T03:12:36;6.60;99.90
33741;DHT22;20065;48.380;10.892;2022-11-12T03:15:41;6.60;99.90
33741;DHT22;20065;48.380;10.892;2022-11-12T03:18:49;6.50;99.90
33741;DHT22;20065;48.380;10.892;2022-11-12T03:21:54;6.40;99.90
33741;DHT22;20065;48.380;10.892;2022-11-12T03:24:59;6.30;99.90
33741;DHT22;20065;48.380;10.892;2022-11-12T03:28:07;6.20;99.90
33741;DHT22;20065;48.380;10.892;2022-11-12T03:31:11;6.00;99.90
33741;DHT22;20065;48.380;10.892;2022-11-12T03:34:16;5.90;99.90
33741;DHT22;20065;48.380;10.892;2022-11-12T03:37:21;5.90;99.90
33741;DHT22;20065;48.380;10.892;2022-11-12T03:40:27;6.00;99.90
33741;DHT22;20065;48.380;10.892;2022-11-12T03:43:32;6.00;99.90
33741;DHT22;20065;48.380;10.892;2022-11-12T03:46:37;6.10;99.90
33741;DHT22;20065;48.380;10.892;2022-11-12T03:49:42;6.20;99.90
33741;DHT22;20065;48.380;10.892;2022-11-12T03:52:48;6.20;99.90
33741;DHT22;20065;48.380;10.892;2022-11-12T03:55:53;6.20;99.90
33741;DHT22;20065;48.380;10.892;2022-11-12T03:58:58;6.20;99.90
33741;DHT22;20065;48.380;10.892;2022-11-12T04:02:03;6.20;99.90
33741;DHT22;20065;48.380;10.892;2022-11-12T04:05:08;6.20;99.90
33741;DHT22;20065;48.380;10.892;2022-11-12T04:08:32;6.20;99.90
33741;DHT22;20065;48.380;10.892;2022-11-12T04:11:40;6.20;99.90
33741;DHT22;20065;48.380;10.892;2022-11-12T04:14:45;6.20;99.90
33741;DHT22;20065;48.380;10.892;2022-11-12T04:17:50;6.20;99.90
33741;DHT22;20065;48.380;10.892;2022-11-12T04:21:14;6.20;99.90
33741;DHT22;20065;48.380;10.892;2022-11-12T04:24:40;6.20;99.90
33741;DHT22;20065;48.380;10.892;2022-11-12T04:28:04;6.20;99.90
33741;DHT22;20065;48.380;10.892;2022-11-12T04:31:08;6.30;99.90
33741;DHT22;20065;48.380;10.892;2022-11-12T04:34:13;6.30;99.90
33741;DHT22;20065;48.380;10.892;2022-11-12T04:37:35;6.30;99.90
33741;DHT22;20065;48.380;10.892;2022-11-12T04:40:49;6.30;99.90
33741;DHT22;20065;48.380;10.892;2022-11-12T04:44:12;6.20;99.90
33741;DHT22;20065;48.380;10.892;2022-11-12T04:47:38;6.20;99.90
33741;DHT22;20065;48.380;10.892;2022-11-12T04:50:46;6.20;99.90
33741;DHT22;20065;48.380;10.892;2022-11-12T04:53:51;6.20;99.90
33741;DHT22;20065;48.380;10.892;2022-11-12T04:56:56;6.20;99.90
33741;DHT22;20065;48.380;10.892;2022-11-12T05:00:01;6.20;99.90
33741;DHT22;20065;48.380;10.892;2022-11-12T05:03:06;6.30;99.90
33741;DHT22;20065;48.380;10.892;2022-11-12T05:06:11;6.30;99.90
33741;DHT22;20065;48.380;10.892;2022-11-12T05:09:34;6.40;99.90
33741;DHT22;20065;48.380;10.892;2022-11-12T05:12:39;6.40;99.90
33741;DHT22;20065;48.380;10.892;2022-11-12T05:15:44;6.40;99.90
33741;DHT22;20065;48.380;10.892;2022-11-12T05:18:49;6.40;99.90
33741;DHT22;20065;48.380;10.892;2022-11-12T05:21:54;6.40;99.90
33741;DHT22;20065;48.380;10.892;2022-11-12T05:25:10;6.40;99.90
33741;DHT22;20065;48.380;10.892;2022-11-12T05:28:15;6.30;99.90
33741;DHT22;20065;48.380;10.892;2022-11-12T05:31:19;6.20;99.90
33741;DHT22;20065;48.380;10.892;2022-11-12T05:34:23;6.20;99.90
33741;DHT22;20065;48.380;10.892;2022-11-12T05:37:28;6.20;99.90
33741;DHT22;20065;48.380;10.892;2022-11-12T05:40:33;6.20;99.90
33741;DHT22;20065;48.380;10.892;2022-11-12T05:43:37;6.20;99.90
33741;DHT22;20065;48.380;10.892;2022-11-12T05:46:43;6.30;99.90
33741;DHT22;20065;48.380;10.892;2022-11-12T05:49:47;6.40;99.90
33741;DHT22;20065;48.380;10.892;2022-11-12T05:52:52;6.20;99.90
33741;DHT22;20065;48.380;10.892;2022-11-12T05:56:04;5.90;99.90
33741;DHT22;20065;48.380;10.892;2022-11-12T05:59:10;5.70;99.90
33741;DHT22;20065;48.380;10.892;2022-11-12T06:02:16;5.60;99.90
33741;DHT22;20065;48.380;10.892;2022-11-12T06:05:20;5.50;99.90
33741;DHT22;20065;48.380;10.892;2022-11-12T06:08:25;5.50;99.90
33741;DHT22;20065;48.380;10.892;2022-11-12T06:11:30;5.40;99.90
33741;DHT22;20065;48.380;10.892;2022-11-12T06:14:34;5.40;99.90
33741;DHT22;20065;48.380;10.892;2022-11-12T06:17:40;5.10;99.90
33741;DHT22;20065;48.380;10.892;2022-11-12T06:20:45;5.20;99.90
33741;DHT22;20065;48.380;10.892;2022-11-12T06:24:09;5.10;99.90
33741;DHT22;20065;48.380;10.892;2022-11-12T06:27:14;5.20;99.90
33741;DHT22;20065;48.380;10.892;2022-11-12T06:30:19;5.30;99.90
33741;DHT22;20065;48.380;10.892;2022-11-12T06:33:24;5.30;99.90
33741;DHT22;20065;48.380;10.892;2022-11-12T06:36:29;5.30;99.90
33741;DHT22;20065;48.380;10.892;2022-11-12T06:39:34;5.10;99.90
33741;DHT22;20065;48.380;10.892;2022-11-12T06:42:39;4.90;99.90
33741;DHT22;20065;48.380;10.892;2022-11-12T06:45:43;4.80;99.90
33741;DHT22;20065;48.380;10.892;2022-11-12T06:48:48;4.90;99.90
33741;DHT22;20065;48.380;10.892;2022-11-12T06:51:53;4.70;99.90
33741;DHT22;20065;48.380;10.892;2022-11-12T06:54:58;4.60;99.90
33741;DHT22;20065;48.380;10.892;2022-11-12T06:58:02;4.70;99.90
33741;DHT22;20065;48.380;10.892;2022-11-12T07:01:13;4.90;99.90
33741;DHT22;20065;48.380;10.892;2022-11-12T07:04:18;5.00;99.90
33741;DHT22;20065;48.380;10.892;2022-11-12T07:07:22;5.00;99.90
33741;DHT22;20065;48.380;10.892;2022-11-12T07:10:27;5.10;99.90
33741;DHT22;20065;48.380;10.892;2022-11-12T07:13:33;5.10;99.90
33741;DHT22;20065;48.380;10.892;2022-11-12T07:16:39;5.00;99.90
33741;DHT22;20065;48.380;10.892;2022-11-12T07:19:43;4.80;99.90
33741;DHT22;20065;48.380;10.892;2022-11-12T07:22:48;4.80;99.90
33741;DHT22;20065;48.380;10.892;2022-11-12T07:26:15;4.60;99.90
33741;DHT22;20065;48.380;10.892;2022-11-12T07:29:21;4.80;99.90
33741;DHT22;20065;48.380;10.892;2022-11-12T07:32:25;5.10;99.90
33741;DHT22;20065;48.380;10.892;2022-11-12T07:35:30;5.20;99.90
33741;DHT22;20065;48.380;10.892;2022-11-12T07:38:38;5.10;99.90
33741;DHT22;20065;48.380;10.892;2022-11-12T07:41:43;5.00;99.90
33741;DHT22;20065;48.380;10.892;2022-11-12T07:44:47;5.10;99.90
33741;DHT22;20065;48.380;10.892;2022-11-12T07:47:52;5.10;99.90
33741;DHT22;20065;48.380;10.892;2022-11-12T07:54:12;5.30;99.90
33741;DHT22;20065;48.380;10.892;2022-11-12T07:57:17;5.50;99.90
33741;DHT22;20065;48.380;10.892;2022-11-12T08:00:22;5.60;99.90
33741;DHT22;20065;48.380;10.892;2022-11-12T08:03:26;5.70;99.90
33741;DHT22;20065;48.380;10.892;2022-11-12T08:06:32;5.90;99.90
33741;DHT22;20065;48.380;10.892;2022-11-12T08:09:37;6.00;99.90
33741;DHT22;20065;48.380;10.892;2022-11-12T08:12:42;5.90;99.90
33741;DHT22;20065;48.380;10.892;2022-11-12T08:15:47;5.80;99.90
33741;DHT22;20065;48.380;10.892;2022-11-12T08:18:52;5.80;99.90
33741;DHT22;20065;48.380;10.892;2022-11-12T08:21:57;6.00;99.90
33741;DHT22;20065;48.380;10.892;2022-11-12T08:25:02;6.10;99.90
33741;DHT22;20065;48.380;10.892;2022-11-12T08:28:07;6.20;99.90
33741;DHT22;20065;48.380;10.892;2022-11-12T08:31:15;6.30;99.90
33741;DHT22;20065;48.380;10.892;2022-11-12T08:34:19;6.40;99.90
33741;DHT22;20065;48.380;10.892;2022-11-12T08:37:24;6.50;99.90
33741;DHT22;20065;48.380;10.892;2022-11-12T08:40:31;6.50;99.90
33741;DHT22;20065;48.380;10.892;2022-11-12T08:43:37;6.50;99.90
33741;DHT22;20065;48.380;10.892;2022-11-12T08:46:41;6.00;99.90
33741;DHT22;20065;48.380;10.892;2022-11-12T08:49:46;5.70;99.90
33741;DHT22;20065;48.380;10.892;2022-11-12T08:52:52;5.60;99.90
33741;DHT22;20065;48.380;10.892;2022-11-12T08:55:57;5.70;99.90
33741;DHT22;20065;48.380;10.892;2022-11-12T08:59:02;5.80;99.90
33741;DHT22;20065;48.380;10.892;2022-11-12T09:02:11;6.00;99.90
33741;DHT22;20065;48.380;10.892;2022-11-12T09:05:16;6.30;99.90
33741;DHT22;20065;48.380;10.892;2022-11-12T09:08:23;6.40;99.90
33741;DHT22;20065;48.380;10.892;2022-11-12T09:11:28;6.40;99.90
33741;DHT22;20065;48.380;10.892;2022-11-12T09:14:33;6.40;99.90
33741;DHT22;20065;48.380;10.892;2022-11-12T09:17:37;6.60;99.90
33741;DHT22;20065;48.380;10.892;2022-11-12T09:20:42;6.70;99.90
33741;DHT22;20065;48.380;10.892;2022-11-12T09:23:46;6.80;99.90
33741;DHT22;20065;48.380;10.892;2022-11-12T09:26:52;6.70;99.90
33741;DHT22;20065;48.380;10.892;2022-11-12T09:29:57;6.80;99.90
33741;DHT22;20065;48.380;10.892;2022-11-12T09:33:02;7.10;99.90
33741;DHT22;20065;48.380;10.892;2022-11-12T09:36:07;7.20;99.90
33741;DHT22;20065;48.380;10.892;2022-11-12T09:39:11;7.30;99.90
33741;DHT22;20065;48.380;10.892;2022-11-12T09:42:19;7.30;99.90
33741;DHT22;20065;48.380;10.892;2022-11-12T09:45:29;7.20;99.90
33741;DHT22;20065;48.380;10.892;2022-11-12T09:48:40;7.30;99.90
33741;DHT22;20065;48.380;10.892;2022-11-12T09:51:56;7.40;99.90
33741;DHT22;20065;48.380;10.892;2022-11-12T09:55:30;7.20;99.90
33741;DHT22;20065;48.380;10.892;2022-11-12T09:58:36;6.90;99.90
33741;DHT22;20065;48.380;10.892;2022-11-12T10:05:21;7.20;99.90
33741;DHT22;20065;48.380;10.892;2022-11-12T10:08:56;7.20;99.90
33741;DHT22;20065;48.380;10.892;2022-11-12T10:23:18;7.60;99.90
33741;DHT22;20065;48.380;10.892;2022-11-12T10:26:24;7.50;99.90
33741;DHT22;20065;48.380;10.892;2022-11-12T10:32:35;7.60;99.90
33741;DHT22;20065;48.380;10.892;2022-11-12T10:35:40;7.90;99.90
33741;DHT22;20065;48.380;10.892;2022-11-12T10:38:47;7.90;99.90
33741;DHT22;20065;48.380;10.892;2022-11-12T10:42:06;8.00;99.90
33741;DHT22;20065;48.380;10.892;2022-11-12T10:45:20;8.00;99.90
33741;DHT22;20065;48.380;10.892;2022-11-12T10:48:30;7.90;99.90
33741;DHT22;20065;48.380;10.892;2022-11-12T10:51:37;8.00;99.90
33741;DHT22;20065;48.380;10.892;2022-11-12T10:54:43;7.90;99.90
33741;DHT22;20065;48.380;10.892;2022-11-12T11:01:16;8.10;99.90
33741;DHT22;20065;48.380;10.892;2022-11-12T11:04:34;8.20;99.90
33741;DHT22;20065;48.380;10.892;2022-11-12T11:07:48;8.20;99.90
33741;DHT22;20065;48.380;10.892;2022-11-12T11:17:28;8.30;99.90
33741;DHT22;20065;48.380;10.892;2022-11-12T11:31:21;8.40;99.90
33741;DHT22;20065;48.380;10.892;2022-11-12T11:41:48;8.50;99.90
33741;DHT22;20065;48.380;10.892;2022-11-12T11:52:23;9.10;99.90
33741;DHT22;20065;48.380;10.892;2022-11-12T12:09:21;9.30;99.90
33741;DHT22;20065;48.380;10.892;2022-11-12T12:12:49;9.30;99.90
33741;DHT22;20065;48.380;10.892;2022-11-12T12:25:55;9.40;99.90
33741;DHT22;20065;48.380;10.892;2022-11-12T12:32:42;9.10;99.90
33741;DHT22;20065;48.380;10.892;2022-11-12T12:36:04;9.10;99.90
33741;DHT22;20065;48.380;10.892;2022-11-12T12:39:18;9.20;99.90
33741;DHT22;20065;48.380;10.892;2022-11-12T12:42:32;9.10;99.90
33741;DHT22;20065;48.380;10.892;2022-11-12T12:45:48;9.20;99.90
33741;DHT22;20065;48.380;10.892;2022-11-12T12:48:54;9.20;99.90
33741;DHT22;20065;48.380;10.892;2022-11-12T12:51:59;9.10;99.90
33741;DHT22;20065;48.380;10.892;2022-11-12T12:55:05;9.20;99.90
33741;DHT22;20065;48.380;10.892;2022-11-12T12:58:32;9.20;99.90
33741;DHT22;20065;48.380;10.892;2022-11-12T13:01:37;9.30;99.90
33741;DHT22;20065;48.380;10.892;2022-11-12T13:04:51;9.30;99.90
33741;DHT22;20065;48.380;10.892;2022-11-12T13:08:05;9.20;99.90
33741;DHT22;20065;48.380;10.892;2022-11-12T13:15:40;9.20;99.90
33741;DHT22;20065;48.380;10.892;2022-11-12T13:25:26;9.20;99.90
33741;DHT22;20065;48.380;10.892;2022-11-12T13:28:31;9.30;99.90
33741;DHT22;20065;48.380;10.892;2022-11-12T13:31:36;9.40;99.90
33741;DHT22;20065;48.380;10.892;2022-11-12T13:34:41;9.40;99.90
33741;DHT22;20065;48.380;10.892;2022-11-12T13:41:20;9.20;99.90
33741;DHT22;20065;48.380;10.892;2022-11-12T13:44:45;9.30;99.90
33741;DHT22;20065;48.380;10.892;2022-11-12T13:47:52;9.30;99.90
33741;DHT22;20065;48.380;10.892;2022-11-12T13:51:03;9.20;99.90
33741;DHT22;20065;48.380;10.892;2022-11-12T13:54:42;9.20;99.90
33741;DHT22;20065;48.380;10.892;2022-11-12T13:57:56;9.10;99.90
33741;DHT22;20065;48.380;10.892;2022-11-12T14:01:02;9.00;99.90
33741;DHT22;20065;48.380;10.892;2022-11-12T14:04:14;8.90;99.90
33741;DHT22;20065;48.380;10.892;2022-11-12T14:20:49;8.80;99.90
33741;DHT22;20065;48.380;10.892;2022-11-12T14:23:54;8.80;99.90
33741;DHT22;20065;48.380;10.892;2022-11-12T14:26:59;8.90;99.90
33741;DHT22;20065;48.380;10.892;2022-11-12T14:30:11;8.90;99.90
33741;DHT22;20065;48.380;10.892;2022-11-12T14:33:22;8.90;99.90
33741;DHT22;20065;48.380;10.892;2022-11-12T14:36:27;8.90;99.90
33741;DHT22;20065;48.380;10.892;2022-11-12T14:39:39;8.80;99.90
33741;DHT22;20065;48.380;10.892;2022-11-12T14:42:46;8.80;99.90
33741;DHT22;20065;48.380;10.892;2022-11-12T14:45:52;8.80;99.90
33741;DHT22;20065;48.380;10.892;2022-11-12T14:52:25;8.80;99.90
33741;DHT22;20065;48.380;10.892;2022-11-12T14:55:33;8.80;99.90
33741;DHT22;20065;48.380;10.892;2022-11-12T14:58:39;8.70;99.90
33741;DHT22;20065;48.380;10.892;2022-11-12T15:02:08;8.70;99.90
33741;DHT22;20065;48.380;10.892;2022-11-12T15:05:20;8.60;99.90
33741;DHT22;20065;48.380;10.892;2022-11-12T15:08:33;8.50;99.90
33741;DHT22;20065;48.380;10.892;2022-11-12T15:11:45;8.50;99.90
33741;DHT22;20065;48.380;10.892;2022-11-12T15:14:51;8.40;99.90
33741;DHT22;20065;48.380;10.892;2022-11-12T15:18:03;8.40;99.90
33741;DHT22;20065;48.380;10.892;2022-11-12T15:21:24;8.40;99.90
33741;DHT22;20065;48.380;10.892;2022-11-12T15:24:34;8.40;99.90
33741;DHT22;20065;48.380;10.892;2022-11-12T15:27:41;8.40;99.90
33741;DHT22;20065;48.380;10.892;2022-11-12T15:31:01;8.40;99.90
33741;DHT22;20065;48.380;10.892;2022-11-12T15:37:43;8.30;99.90
33741;DHT22;20065;48.380;10.892;2022-11-12T15:40:52;8.20;99.90
33741;DHT22;20065;48.380;10.892;2022-11-12T15:43:58;8.20;99.90
33741;DHT22;20065;48.380;10.892;2022-11-12T15:47:04;8.20;99.90
33741;DHT22;20065;48.380;10.892;2022-11-12T15:53:17;8.20;99.90
33741;DHT22;20065;48.380;10.892;2022-11-12T15:56:22;8.10;99.90
33741;DHT22;20065;48.380;10.892;2022-11-12T15:59:28;8.10;99.90
33741;DHT22;20065;48.380;10.892;2022-11-12T16:02:33;8.00;99.90
33741;DHT22;20065;48.380;10.892;2022-11-12T16:05:38;7.90;99.90
33741;DHT22;20065;48.380;10.892;2022-11-12T16:08:43;7.80;99.90
33741;DHT22;20065;48.380;10.892;2022-11-12T16:11:48;7.80;99.90
33741;DHT22;20065;48.380;10.892;2022-11-12T16:14:54;7.80;99.90
33741;DHT22;20065;48.380;10.892;2022-11-12T16:17:59;7.80;99.90
33741;DHT22;20065;48.380;10.892;2022-11-12T16:21:04;7.90;99.90
33741;DHT22;20065;48.380;10.892;2022-11-12T16:24:09;7.90;99.90
33741;DHT22;20065;48.380;10.892;2022-11-12T16:27:14;7.90;99.90
33741;DHT22;20065;48.380;10.892;2022-11-12T16:30:23;7.80;99.90
33741;DHT22;20065;48.380;10.892;2022-11-12T16:33:28;7.80;99.90
33741;DHT22;20065;48.380;10.892;2022-11-12T16:36:35;7.80;99.90
33741;DHT22;20065;48.380;10.892;2022-11-12T16:39:40;7.80;99.90
33741;DHT22;20065;48.380;10.892;2022-11-12T16:42:45;7.80;99.90
33741;DHT22;20065;48.380;10.892;2022-11-12T16:45:50;7.70;99.90
33741;DHT22;20065;48.380;10.892;2022-11-12T16:48:55;7.70;99.90
33741;DHT22;20065;48.380;10.892;2022-11-12T16:52:00;7.70;99.90
33741;DHT22;20065;48.380;10.892;2022-11-12T16:55:05;7.70;99.90
33741;DHT22;20065;48.380;10.892;2022-11-12T16:58:14;7.70;99.90
33741;DHT22;20065;48.380;10.892;2022-11-12T17:04:28;7.70;99.90
33741;DHT22;20065;48.380;10.892;2022-11-12T17:07:33;7.60;99.90
33741;DHT22;20065;48.380;10.892;2022-11-12T17:10:38;7.30;99.90
33741;DHT22;20065;48.380;10.892;2022-11-12T17:13:44;7.40;99.90
33741;DHT22;20065;48.380;10.892;2022-11-12T17:16:49;7.50;99.90
33741;DHT22;20065;48.380;10.892;2022-11-12T17:19:54;7.50;99.90
33741;DHT22;20065;48.380;10.892;2022-11-12T17:22:59;7.50;99.90
33741;DHT22;20065;48.380;10.892;2022-11-12T17:26:08;7.60;99.90
33741;DHT22;20065;48.380;10.892;2022-11-12T17:29:13;7.50;99.90
33741;DHT22;20065;48.380;10.892;2022-11-12T17:32:20;7.50;99.90
33741;DHT22;20065;48.380;10.892;2022-11-12T17:35:25;7.60;99.90
33741;DHT22;20065;48.380;10.892;2022-11-12T17:38:30;7.60;99.90
33741;DHT22;20065;48.380;10.892;2022-11-12T17:41:35;7.60;99.90
33741;DHT22;20065;48.380;10.892;2022-11-12T17:44:40;7.50;99.90
33741;DHT22;20065;48.380;10.892;2022-11-12T17:47:44;7.40;99.90
33741;DHT22;20065;48.380;10.892;2022-11-12T17:50:51;7.40;99.90
33741;DHT22;20065;48.380;10.892;2022-11-12T17:53:56;7.40;99.90
33741;DHT22;20065;48.380;10.892;2022-11-12T17:57:01;7.40;99.90
33741;DHT22;20065;48.380;10.892;2022-11-12T18:00:07;7.30;99.90
33741;DHT22;20065;48.380;10.892;2022-11-12T18:03:13;7.40;99.90
33741;DHT22;20065;48.380;10.892;2022-11-12T18:06:23;7.30;99.90
33741;DHT22;20065;48.380;10.892;2022-11-12T18:09:28;7.30;99.90
33741;DHT22;20065;48.380;10.892;2022-11-12T18:12:33;7.30;99.90
33741;DHT22;20065;48.380;10.892;2022-11-12T18:15:39;7.30;99.90
33741;DHT22;20065;48.380;10.892;2022-11-12T18:18:44;7.30;99.90
33741;DHT22;20065;48.380;10.892;2022-11-12T18:21:50;7.40;99.90
33741;DHT22;20065;48.380;10.892;2022-11-12T18:24:58;7.30;99.90
33741;DHT22;20065;48.380;10.892;2022-11-12T18:28:04;7.30;99.90
33741;DHT22;20065;48.380;10.892;2022-11-12T18:31:11;7.30;99.90
33741;DHT22;20065;48.380;10.892;2022-11-12T18:34:16;7.30;99.90
33741;DHT22;20065;48.380;10.892;2022-11-12T18:37:21;7.20;99.90
33741;DHT22;20065;48.380;10.892;2022-11-12T18:40:26;7.10;99.90
33741;DHT22;20065;48.380;10.892;2022-11-12T18:43:31;7.10;99.90
33741;DHT22;20065;48.380;10.892;2022-11-12T18:46:36;7.10;99.90
33741;DHT22;20065;48.380;10.892;2022-11-12T18:49:41;7.10;99.90
33741;DHT22;20065;48.380;10.892;2022-11-12T18:52:45;7.10;99.90
33741;DHT22;20065;48.380;10.892;2022-11-12T18:55:51;7.10;99.90
33741;DHT22;20065;48.380;10.892;2022-11-12T18:58:57;7.00;99.90
33741;DHT22;20065;48.380;10.892;2022-11-12T19:02:03;6.90;99.90
33741;DHT22;20065;48.380;10.892;2022-11-12T19:05:08;7.00;99.90
33741;DHT22;20065;48.380;10.892;2022-11-12T19:08:13;7.00;99.90
33741;DHT22;20065;48.380;10.892;2022-11-12T19:11:18;6.90;99.90
33741;DHT22;20065;48.380;10.892;2022-11-12T19:14:25;6.80;99.90
33741;DHT22;20065;48.380;10.892;2022-11-12T19:17:30;6.80;99.90
33741;DHT22;20065;48.380;10.892;2022-11-12T19:20:35;6.80;99.90
33741;DHT22;20065;48.380;10.892;2022-11-12T19:23:39;6.90;99.90
33741;DHT22;20065;48.380;10.892;2022-11-12T19:26:47;6.90;99.90
33741;DHT22;20065;48.380;10.892;2022-11-12T19:29:52;6.90;99.90
33741;DHT22;20065;48.380;10.892;2022-11-12T19:32:58;7.00;99.90
33741;DHT22;20065;48.380;10.892;2022-11-12T19:36:08;7.00;99.90
33741;DHT22;20065;48.380;10.892;2022-11-12T19:39:13;7.00;99.90
33741;DHT22;20065;48.380;10.892;2022-11-12T19:42:18;6.90;99.90
33741;DHT22;20065;48.380;10.892;2022-11-12T19:45:23;6.80;99.90
33741;DHT22;20065;48.380;10.892;2022-11-12T19:48:28;6.80;99.90
33741;DHT22;20065;48.380;10.892;2022-11-12T19:51:34;6.70;99.90
33741;DHT22;20065;48.380;10.892;2022-11-12T19:54:40;6.70;99.90
33741;DHT22;20065;48.380;10.892;2022-11-12T19:57:45;6.70;99.90
33741;DHT22;20065;48.380;10.892;2022-11-12T20:00:50;6.80;99.90
33741;DHT22;20065;48.380;10.892;2022-11-12T20:03:55;6.80;99.90
33741;DHT22;20065;48.380;10.892;2022-11-12T20:07:00;6.80;99.90
33741;DHT22;20065;48.380;10.892;2022-11-12T20:10:07;6.70;99.90
33741;DHT22;20065;48.380;10.892;2022-11-12T20:13:12;6.70;99.90
33741;DHT22;20065;48.380;10.892;2022-11-12T20:16:17;6.70;99.90
33741;DHT22;20065;48.380;10.892;2022-11-12T20:19:21;6.70;99.90
33741;DHT22;20065;48.380;10.892;2022-11-12T20:22:29;6.80;99.90
33741;DHT22;20065;48.380;10.892;2022-11-12T20:25:34;6.80;99.90
33741;DHT22;20065;48.380;10.892;2022-11-12T20:28:40;6.70;99.90
33741;DHT22;20065;48.380;10.892;2022-11-12T20:31:45;6.60;99.90
33741;DHT22;20065;48.380;10.892;2022-11-12T20:34:50;6.50;99.90
33741;DHT22;20065;48.380;10.892;2022-11-12T20:37:56;6.50;99.90
33741;DHT22;20065;48.380;10.892;2022-11-12T20:41:01;6.50;99.90
33741;DHT22;20065;48.380;10.892;2022-11-12T20:44:08;6.50;99.90
33741;DHT22;20065;48.380;10.892;2022-11-12T20:47:12;6.60;99.90
33741;DHT22;20065;48.380;10.892;2022-11-12T20:50:17;6.60;99.90
33741;DHT22;20065;48.380;10.892;2022-11-12T20:53:22;6.50;99.90
33741;DHT22;20065;48.380;10.892;2022-11-12T20:56:28;6.50;99.90
33741;DHT22;20065;48.380;10.892;2022-11-12T20:59:36;6.50;99.90
33741;DHT22;20065;48.380;10.892;2022-11-12T21:02:44;6.50;99.90
33741;DHT22;20065;48.380;10.892;2022-11-12T21:05:59;6.50;99.90
33741;DHT22;20065;48.380;10.892;2022-11-12T21:09:05;6.40;99.90
33741;DHT22;20065;48.380;10.892;2022-11-12T21:12:10;6.40;99.90
33741;DHT22;20065;48.380;10.892;2022-11-12T21:15:15;6.30;99.90
33741;DHT22;20065;48.380;10.892;2022-11-12T21:18:23;6.30;99.90
33741;DHT22;20065;48.380;10.892;2022-11-12T21:21:30;6.30;99.90
33741;DHT22;20065;48.380;10.892;2022-11-12T21:24:35;6.30;99.90
33741;DHT22;20065;48.380;10.892;2022-11-12T21:27:40;6.40;99.90
33741;DHT22;20065;48.380;10.892;2022-11-12T21:30:45;6.40;99.90
33741;DHT22;20065;48.380;10.892;2022-11-12T21:33:55;6.30;99.90
33741;DHT22;20065;48.380;10.892;2022-11-12T21:37:01;6.20;99.90
33741;DHT22;20065;48.380;10.892;2022-11-12T21:40:07;6.20;99.90
33741;DHT22;20065;48.380;10.892;2022-11-12T21:43:12;6.20;99.90
33741;DHT22;20065;48.380;10.892;2022-11-12T21:46:28;6.20;99.90
33741;DHT22;20065;48.380;10.892;2022-11-12T21:49:34;6.10;99.90
33741;DHT22;20065;48.380;10.892;2022-11-12T21:52:39;6.10;99.90